Time;durP1;ratioP1;P1;durP2;ratioP2;P2;SDS_P1;SDS_P2;PMS_P1;PMS_P2;Temp;Humidity;BMP_temperature;BMP_pressure;BME280_temperature;BME280_humidity;BME280_pressure;Samples;Min_cycle;Max_cycle;Signal;HPM_P1;HPM_P2
2022/01/13 00:00:56;;;;;;;130.20;49.50;;;;;;;-2.78;80.26;100820.09;4126648;85;21062;-83
2022/01/13 00:06:57;;;;;;;125.60;48.37;;;;;;;-2.74;80.25;100813.22;4120372;85;21093;-83
2022/01/13 00:13:06;;;;;;;122.83;49.63;;;;;;;-2.78;80.25;100791.95;4134331;85;21057;-83
2022/01/13 00:25:18;;;;;;;115.17;43.03;;;;;;;-2.72;80.57;100788.30;4126446;85;21067;-83
2022/01/13 00:31:31;;;;;;;105.13;43.67;;;;;;;-2.78;80.44;100790.09;4129463;85;21055;-83
2022/01/13 00:37:34;;;;;;;118.27;43.07;;;;;;;-2.71;80.63;100783.23;4136217;85;21191;-83
2022/01/13 00:43:39;;;;;;;108.13;41.47;;;;;;;-2.63;80.46;100779.59;4122690;84;21058;-83
2022/01/13 00:49:38;;;;;;;105.37;39.53;;;;;;;-2.56;80.63;100795.00;4126017;84;21055;-83
2022/01/13 00:55:58;;;;;;;103.70;38.50;;;;;;;-2.59;80.60;100791.98;4129199;86;21090;-83
2022/01/13 01:01:54;;;;;;;98.77;39.57;;;;;;;-2.60;80.72;100780.98;4126010;86;21035;-83
2022/01/13 01:07:55;;;;;;;95.67;38.80;;;;;;;-2.52;81.00;100788.07;4128716;85;21102;-83
2022/01/13 01:13:59;;;;;;;101.03;40.03;;;;;;;-2.42;80.96;100806.18;4122171;84;21062;-83
2022/01/13 01:20:06;;;;;;;96.23;38.10;;;;;;;-2.31;81.29;100822.70;4126429;85;21122;-84
2022/01/13 01:26:25;;;;;;;103.10;40.23;;;;;;;-2.20;81.35;100821.27;4099373;86;21090;-83
2022/01/13 01:32:15;;;;;;;94.50;38.17;;;;;;;-2.14;81.32;100811.40;4103640;86;21023;-83
2022/01/13 01:38:16;;;;;;;100.37;41.53;;;;;;;-2.09;81.63;100815.50;4106392;85;21029;-84
2022/01/13 01:44:31;;;;;;;99.47;41.27;;;;;;;-2.04;82.14;100823.10;4098824;86;21031;-84
2022/01/13 01:50:35;;;;;;;123.83;49.13;;;;;;;-1.97;82.12;100826.92;4125830;86;21023;-84
2022/01/13 01:56:34;;;;;;;128.53;51.20;;;;;;;-1.95;82.17;100819.44;4131112;84;21059;-83
2022/01/13 02:02:36;;;;;;;126.10;50.37;;;;;;;-1.95;82.57;100807.36;4124858;86;21041;-84
2022/01/13 02:08:37;;;;;;;125.13;48.57;;;;;;;-1.93;82.68;100806.59;4128499;86;21608;-85
2022/01/13 02:14:58;;;;;;;108.37;44.70;;;;;;;-1.90;83.26;100810.12;4133149;86;21049;-84
2022/01/13 02:20:54;;;;;;;107.57;46.57;;;;;;;-1.87;83.17;100789.48;4122919;84;22281;-84
2022/01/13 02:26:56;;;;;;;126.03;51.53;;;;;;;-1.82;84.00;100795.70;4118777;84;21113;-83
2022/01/13 02:32:58;;;;;;;113.73;46.97;;;;;;;-1.79;84.32;100843.56;4131459;86;21506;-84
2022/01/13 02:39:00;;;;;;;102.33;44.40;;;;;;;-1.73;84.63;100817.05;4051818;86;21132;-84
2022/01/13 02:45:03;;;;;;;103.13;41.53;;;;;;;-1.66;84.96;100790.02;4148229;85;21027;-84
2022/01/13 02:51:05;;;;;;;95.73;36.17;;;;;;;-1.58;85.41;100775.31;4133409;84;21062;-84
2022/01/13 02:57:06;;;;;;;80.53;34.23;;;;;;;-1.54;85.86;100747.70;4120457;86;21118;-85
2022/01/13 03:03:07;;;;;;;82.00;36.27;;;;;;;-1.50;86.23;100739.40;4123076;86;21051;-85
2022/01/13 03:09:13;;;;;;;70.23;32.47;;;;;;;-1.41;86.46;100754.02;4125868;86;21579;-84
2022/01/13 03:15:14;;;;;;;74.63;30.03;;;;;;;-1.31;87.10;100772.91;4127154;85;21048;-84
2022/01/13 03:21:15;;;;;;;55.13;22.30;;;;;;;-1.20;87.50;100784.55;4115991;86;21130;-85
2022/01/13 03:27:23;;;;;;;56.08;24.05;;;;;;;-1.12;87.71;100781.40;4110390;84;21066;-85
2022/01/13 03:33:24;;;;;;;49.30;24.00;;;;;;;-1.04;87.79;100772.87;4116091;85;21054;-85
2022/01/13 03:39:25;;;;;;;54.33;24.40;;;;;;;-1.00;88.14;100761.34;4120854;86;21077;-86
2022/01/13 03:45:27;;;;;;;55.12;23.40;;;;;;;-0.91;89.23;100722.72;4130866;86;21018;-86
2022/01/13 03:51:51;;;;;;;48.02;20.60;;;;;;;-0.91;89.23;100722.72;4126496;84;21094;-86
2022/01/13 03:58:47;;;;;;;43.92;20.32;;;;;;;-0.72;89.91;100738.16;4122677;84;28206;-86
2022/01/13 04:04:49;;;;;;;41.18;19.48;;;;;;;-0.61;90.82;100753.86;4146301;83;21058;-86
2022/01/13 04:11:06;;;;;;;40.73;18.40;;;;;;;-0.61;90.82;100753.86;4214294;83;21076;-86
2022/01/13 04:17:09;;;;;;;44.18;19.48;;;;;;;-0.58;90.30;100762.75;4207560;82;21366;-86
2022/01/13 04:23:12;;;;;;;43.85;19.17;;;;;;;-0.54;90.21;100759.80;4200590;83;21524;-88
2022/01/13 04:35:16;;;;;;;40.80;17.42;;;;;;;-0.47;91.13;100754.46;4154879;85;21006;-88
2022/01/13 04:41:28;;;;;;;41.73;19.48;;;;;;;-0.53;91.32;100724.56;4152896;85;21039;-87
2022/01/13 04:47:20;;;;;;;40.65;18.15;;;;;;;-0.53;91.32;100721.87;4138087;85;21086;-87
2022/01/13 04:53:22;;;;;;;42.43;19.12;;;;;;;-0.40;92.17;100734.05;4137198;85;21097;-88
2022/01/13 04:59:23;;;;;;;37.33;15.88;;;;;;;-0.40;92.17;100734.05;4145504;84;21042;-87
2022/01/13 05:05:25;;;;;;;36.73;17.45;;;;;;;-0.38;92.43;100743.50;4160844;84;21022;-87
2022/01/13 05:11:26;;;;;;;37.28;16.17;;;;;;;-0.38;92.43;100743.50;4157879;84;21034;-87
2022/01/13 05:18:08;;;;;;;39.50;16.90;;;;;;;-0.37;92.50;100751.84;4139105;85;21046;-86
2022/01/13 05:23:38;;;;;;;42.20;19.05;;;;;;;-0.35;93.28;100740.29;4120100;85;20990;-88
2022/01/13 05:29:40;;;;;;;47.10;19.90;;;;;;;-0.35;92.99;100733.56;4131146;85;21139;-89
2022/01/13 05:35:42;;;;;;;51.10;20.92;;;;;;;-0.30;93.29;100734.12;4147703;84;21085;-89
2022/01/13 05:41:44;;;;;;;49.45;21.52;;;;;;;-0.29;93.30;100741.94;4137355;84;21137;-87
2022/01/13 05:47:48;;;;;;;49.10;21.12;;;;;;;-0.28;93.28;100730.08;4079808;85;21129;-88
2022/01/13 05:53:50;;;;;;;52.70;20.72;;;;;;;-0.28;93.28;100730.08;4136014;84;21065;-87
2022/01/13 05:59:51;;;;;;;45.20;19.70;;;;;;;-0.21;93.83;100725.28;4149525;84;21038;-89
2022/01/13 06:05:54;;;;;;;46.37;18.62;;;;;;;-0.21;93.83;100725.28;4146633;85;22392;-89
2022/01/13 06:11:59;;;;;;;52.30;21.65;;;;;;;-0.19;94.29;100719.08;4127875;84;21138;-88
2022/01/13 06:18:01;;;;;;;49.88;21.75;;;;;;;-0.17;93.82;100732.28;4124986;85;21041;-88
2022/01/13 06:24:03;;;;;;;45.83;21.42;;;;;;;-0.16;94.14;100732.02;4147989;84;21073;-89
2022/01/13 06:30:09;;;;;;;50.90;23.65;;;;;;;-0.15;94.11;100726.11;4128211;84;21083;-88
2022/01/13 06:36:16;;;;;;;54.65;24.25;;;;;;;-0.12;94.18;100723.70;4133642;85;21101;-88
2022/01/13 06:42:17;;;;;;;61.73;24.72;;;;;;;-0.08;94.53;100725.34;4124676;85;21558;-89
2022/01/13 06:54:54;;;;;;;47.65;21.68;;;;;;;-0.02;95.43;100721.59;4142050;85;21001;-90
2022/01/13 07:00:58;;;;;;;52.98;23.22;;;;;;;-0.02;94.73;100749.30;4205588;84;21118;-90
2022/01/13 07:07:00;;;;;;;52.80;23.10;;;;;;;0.00;94.66;100735.61;4179011;84;21063;-87
2022/01/13 07:13:01;;;;;;;50.90;22.25;;;;;;;0.08;94.58;100726.20;4209027;84;21044;-88
2022/01/13 07:19:04;;;;;;;47.13;21.23;;;;;;;0.03;94.41;100714.87;4199137;84;21056;-91
2022/01/13 07:25:10;;;;;;;48.15;20.88;;;;;;;0.03;94.41;100714.87;4207735;84;21038;-90
2022/01/13 07:31:14;;;;;;;44.00;20.62;;;;;;;0.20;94.41;100720.03;4201568;84;21077;-89
2022/01/13 07:37:18;;;;;;;39.90;17.42;;;;;;;0.26;94.37;100724.36;4208739;83;21065;-89
2022/01/13 07:43:23;;;;;;;44.88;19.92;;;;;;;0.32;94.54;100720.06;4207922;84;21044;-88
2022/01/13 07:49:29;;;;;;;42.15;18.25;;;;;;;0.24;94.31;100696.34;4177341;84;21091;-90
2022/01/13 07:55:31;;;;;;;36.40;17.47;;;;;;;0.42;94.36;100733.57;4113617;84;21557;-88
2022/01/13 08:01:33;;;;;;;37.83;17.85;;;;;;;0.47;94.17;100732.77;4115784;86;21058;-90
2022/01/13 08:07:34;;;;;;;37.25;17.65;;;;;;;0.52;94.24;100697.75;4107668;86;21496;-90
2022/01/13 08:13:39;;;;;;;36.28;16.65;;;;;;;0.60;94.23;100682.38;4099532;85;21098;-90
2022/01/13 08:19:45;;;;;;;36.03;17.07;;;;;;;0.69;94.06;100657.31;4121572;85;21079;-88
2022/01/13 08:25:53;;;;;;;38.23;19.53;;;;;;;0.79;93.83;100653.80;4150416;84;21101;-88
2022/01/13 08:31:54;;;;;;;48.10;19.27;;;;;;;0.88;93.86;100649.48;4117289;84;21032;-90
2022/01/13 08:38:04;;;;;;;37.45;18.70;;;;;;;0.96;93.75;100648.40;4143062;85;21051;-90
2022/01/13 08:44:11;;;;;;;29.95;14.23;;;;;;;1.09;93.69;100642.98;4132126;85;21019;-88
2022/01/13 08:50:28;;;;;;;36.63;17.60;;;;;;;1.19;93.51;100641.63;4114788;85;21046;-89
2022/01/13 08:56:30;;;;;;;37.85;18.52;;;;;;;1.29;93.39;100638.35;4129227;84;21010;-89
2022/01/13 09:02:34;;;;;;;36.50;17.95;;;;;;;1.41;93.28;100648.29;4157890;85;21015;-88
2022/01/13 09:08:41;;;;;;;47.48;21.30;;;;;;;1.53;93.28;100640.68;4139867;85;21756;-87
2022/01/13 09:21:13;;;;;;;46.08;22.30;;;;;;;1.80;93.07;100624.66;4081174;86;21154;-89
2022/01/13 09:27:15;;;;;;;52.73;26.42;;;;;;;2.01;92.86;100612.63;4120397;85;21082;-89
2022/01/13 09:33:17;;;;;;;55.45;24.02;;;;;;;2.11;92.77;100609.34;4096264;86;21086;-90
2022/01/13 09:39:30;;;;;;;68.62;31.17;;;;;;;2.17;92.09;100624.43;4121676;85;21093;-90
2022/01/13 09:45:40;;;;;;;63.17;31.02;;;;;;;2.08;91.71;100620.72;4147969;84;20998;-90
2022/01/13 09:51:45;;;;;;;69.17;31.82;;;;;;;2.06;91.71;100618.83;4135551;84;21620;-89
2022/01/13 09:57:53;;;;;;;58.60;28.70;;;;;;;2.07;91.71;100606.14;4118421;85;21305;-89
2022/01/13 10:03:54;;;;;;;61.60;30.40;;;;;;;2.18;91.65;100598.20;4094408;85;21121;-88
2022/01/13 10:09:59;;;;;;;69.72;32.28;;;;;;;2.27;91.17;100605.43;4142367;84;21078;-88
2022/01/13 10:28:52;;;;;;;55.88;27.58;;;;;;;2.86;90.24;100597.09;4107697;84;21106;-90
2022/01/13 10:35:12;;;;;;;60.52;29.45;;;;;;;2.81;90.16;100604.72;4126053;85;21151;-89
2022/01/13 10:41:49;;;;;;;69.35;31.02;;;;;;;2.67;89.68;100577.27;4135455;84;21082;-89
2022/01/13 10:47:35;;;;;;;64.17;32.75;;;;;;;2.74;89.52;100562.87;4103187;84;21086;-90
2022/01/13 10:53:43;;;;;;;55.90;28.92;;;;;;;2.89;89.78;100555.41;4129331;85;21038;-89
2022/01/13 10:59:45;;;;;;;59.30;28.83;;;;;;;2.99;88.87;100546.38;4120696;85;21082;-89
2022/01/13 11:05:50;;;;;;;66.70;30.50;;;;;;;3.06;88.97;100541.41;4118534;84;21113;-91
2022/01/13 11:12:05;;;;;;;63.70;28.17;;;;;;;3.09;88.45;100535.42;4137787;84;21054;-92
2022/01/13 11:18:09;;;;;;;55.37;25.93;;;;;;;3.10;87.75;100533.00;4108565;85;21072;-92
2022/01/13 11:24:12;;;;;;;44.42;20.97;;;;;;;3.12;88.28;100527.55;4106128;84;21373;-90
2022/01/13 11:30:18;;;;;;;46.70;21.77;;;;;;;3.21;88.30;100510.92;4117038;86;21570;-91
2022/01/13 11:49:20;;;;;;;46.58;20.12;;;;;;;3.23;87.57;100485.73;4112001;85;21047;-91
2022/01/13 11:55:58;;;;;;;45.47;21.83;;;;;;;3.35;87.56;100481.80;4032257;86;239316;-90
2022/01/13 12:02:37;;;;;;;44.33;23.10;;;;;;;3.46;87.20;100474.58;3974777;87;21080;-89
2022/01/13 12:08:47;;;;;;;48.78;23.10;;;;;;;3.51;86.92;100465.03;3878791;91;21510;-90
2022/01/13 12:14:48;;;;;;;42.83;20.30;;;;;;;3.62;87.00;100439.42;3919663;87;21153;-92
2022/01/13 12:21:19;;;;;;;;;;;;;;;;;;;;;
2022/01/13 12:27:03;;;;;;;48.80;23.15;;;;;;;3.70;86.59;100416.27;3880708;90;21075;-90
2022/01/13 12:33:12;;;;;;;52.78;23.75;;;;;;;3.78;86.41;100415.61;3978902;89;21101;-89
2022/01/13 12:39:26;;;;;;;41.65;21.33;;;;;;;3.80;86.02;100418.30;3854006;91;21130;-89
2022/01/13 12:45:33;;;;;;;39.58;17.92;;;;;;;3.80;85.55;100417.48;3986431;87;21101;-89
2022/01/13 12:51:40;;;;;;;44.73;20.40;;;;;;;3.76;85.53;100396.16;3952883;88;21102;-90
2022/01/13 12:57:49;;;;;;;44.73;19.62;;;;;;;3.70;85.23;100396.78;3962073;88;21203;-89
2022/01/13 13:11:03;;;;;;;42.13;19.07;;;;;;;3.55;85.14;100365.08;4049627;86;22096;-90
2022/01/13 13:17:04;;;;;;;28.83;12.93;;;;;;;3.50;84.74;100363.80;3938534;88;21123;-90
2022/01/13 13:23:12;;;;;;;44.45;21.60;;;;;;;3.46;84.95;100364.94;4043235;86;21538;-90
2022/01/13 13:36:04;;;;;;;;;;;;;;;3.42;85.00;100339.56;3958850;88;21042;-90
2022/01/13 13:42:09;;;;;;;44.95;20.30;;;;;;;3.40;84.81;100346.39;3981019;88;20163;-89
2022/01/13 13:48:10;;;;;;;43.60;18.85;;;;;;;3.34;85.02;100343.48;3950473;88;21079;-89
2022/01/13 13:54:52;;;;;;;47.00;20.35;;;;;;;3.26;85.03;100346.88;4033750;86;21092;-89
2022/01/13 14:01:16;;;;;;;50.38;20.30;;;;;;;3.20;85.19;100340.73;4018232;86;21120;-89
2022/01/13 14:07:41;;;;;;;45.25;21.10;;;;;;;3.13;85.24;100345.16;3964689;87;21581;-89
2022/01/13 14:13:42;;;;;;;49.03;22.73;;;;;;;3.08;85.39;100338.48;3838239;91;21127;-89
2022/01/13 14:20:17;;;;;;;45.98;21.93;;;;;;;2.99;85.46;100333.45;3729044;89;21151;-89
2022/01/13 14:33:39;;;;;;;44.03;20.62;;;;;;;3.05;85.77;100340.39;3954554;87;21544;-90
2022/01/13 14:40:30;;;;;;;66.82;27.58;;;;;;;3.06;85.93;100342.56;3974236;88;21150;-90
2022/01/13 14:53:06;;;;;;;67.37;31.82;;;;;;;3.02;86.35;100352.37;3965899;87;21229;-89
2022/01/13 14:59:12;;;;;;;51.40;27.35;;;;;;;3.00;86.51;100345.91;3966277;88;21051;-91
2022/01/13 15:05:13;;;;;;;50.05;24.37;;;;;;;3.00;86.72;100335.63;3979487;88;22032;-90
2022/01/13 15:11:18;;;;;;;47.15;21.82;;;;;;;2.97;86.86;100332.16;4001333;88;21079;-90
